sensor_id;sensor_type;location;lat;lon;timestamp;temperature;humidity
79494;SHT31;68951;53.130;18.104;2024-01-30T00:01:58;0.97;72.70
79494;SHT31;68951;53.130;18.104;2024-01-30T00:04:25;0.93;72.69
79494;SHT31;68951;53.130;18.104;2024-01-30T00:06:52;0.86;72.67
79494;SHT31;68951;53.130;18.104;2024-01-30T00:09:19;0.82;72.66
79494;SHT31;68951;53.130;18.104;2024-01-30T00:11:46;0.80;72.70
79494;SHT31;68951;53.130;18.104;2024-01-30T00:14:13;0.79;72.70
79494;SHT31;68951;53.130;18.104;2024-01-30T00:16:40;0.80;72.70
79494;SHT31;68951;53.130;18.104;2024-01-30T00:19:07;0.78;72.70
79494;SHT31;68951;53.130;18.104;2024-01-30T00:21:34;0.79;72.71
79494;SHT31;68951;53.130;18.104;2024-01-30T00:24:01;0.87;72.73
79494;SHT31;68951;53.130;18.104;2024-01-30T00:26:28;0.95;72.73
79494;SHT31;68951;53.130;18.104;2024-01-30T00:28:55;0.95;72.72
79494;SHT31;68951;53.130;18.104;2024-01-30T00:31:21;0.90;72.70
79494;SHT31;68951;53.130;18.104;2024-01-30T00:33:48;0.87;72.70
79494;SHT31;68951;53.130;18.104;2024-01-30T00:36:15;0.84;72.67
79494;SHT31;68951;53.130;18.104;2024-01-30T00:38:42;0.84;72.61
79494;SHT31;68951;53.130;18.104;2024-01-30T00:41:09;0.84;72.66
79494;SHT31;68951;53.130;18.104;2024-01-30T00:43:36;0.81;72.62
79494;SHT31;68951;53.130;18.104;2024-01-30T00:46:03;0.80;72.62
79494;SHT31;68951;53.130;18.104;2024-01-30T00:48:30;0.78;72.66
79494;SHT31;68951;53.130;18.104;2024-01-30T00:50:57;0.77;72.70
79494;SHT31;68951;53.130;18.104;2024-01-30T00:53:23;0.76;72.65
79494;SHT31;68951;53.130;18.104;2024-01-30T00:55:50;0.74;72.69
79494;SHT31;68951;53.130;18.104;2024-01-30T00:58:17;0.69;72.69
79494;SHT31;68951;53.130;18.104;2024-01-30T01:00:45;0.66;72.70
79494;SHT31;68951;53.130;18.104;2024-01-30T01:03:12;0.64;72.70
79494;SHT31;68951;53.130;18.104;2024-01-30T01:05:40;0.64;72.70
79494;SHT31;68951;53.130;18.104;2024-01-30T01:08:07;0.66;72.70
79494;SHT31;68951;53.130;18.104;2024-01-30T01:10:33;0.69;72.70
79494;SHT31;68951;53.130;18.104;2024-01-30T01:13:00;0.68;72.70
79494;SHT31;68951;53.130;18.104;2024-01-30T01:15:27;0.64;72.70
79494;SHT31;68951;53.130;18.104;2024-01-30T01:17:54;0.61;72.71
79494;SHT31;68951;53.130;18.104;2024-01-30T01:20:21;0.62;72.74
79494;SHT31;68951;53.130;18.104;2024-01-30T01:22:48;0.62;72.76
79494;SHT31;68951;53.130;18.104;2024-01-30T01:25:14;0.60;72.80
79494;SHT31;68951;53.130;18.104;2024-01-30T01:27:41;0.57;72.80
79494;SHT31;68951;53.130;18.104;2024-01-30T01:30:09;0.55;72.80
79494;SHT31;68951;53.130;18.104;2024-01-30T01:32:38;0.57;72.80
79494;SHT31;68951;53.130;18.104;2024-01-30T01:35:04;0.62;72.85
79494;SHT31;68951;53.130;18.104;2024-01-30T01:37:31;0.63;72.86
79494;SHT31;68951;53.130;18.104;2024-01-30T01:39:59;0.63;72.90
79494;SHT31;68951;53.130;18.104;2024-01-30T01:42:26;0.61;72.90
79494;SHT31;68951;53.130;18.104;2024-01-30T01:44:53;0.59;72.90
79494;SHT31;68951;53.130;18.104;2024-01-30T01:47:19;0.55;72.90
79494;SHT31;68951;53.130;18.104;2024-01-30T01:49:47;0.58;72.94
79494;SHT31;68951;53.130;18.104;2024-01-30T01:52:14;0.68;73.00
79494;SHT31;68951;53.130;18.104;2024-01-30T01:54:41;0.73;73.00
79494;SHT31;68951;53.130;18.104;2024-01-30T01:57:08;0.72;73.00
79494;SHT31;68951;53.130;18.104;2024-01-30T01:59:35;0.69;73.00
79494;SHT31;68951;53.130;18.104;2024-01-30T02:02:02;0.67;73.00
79494;SHT31;68951;53.130;18.104;2024-01-30T02:04:31;0.63;73.00
79494;SHT31;68951;53.130;18.104;2024-01-30T02:06:58;0.57;72.98
79494;SHT31;68951;53.130;18.104;2024-01-30T02:09:25;0.55;73.00
79494;SHT31;68951;53.130;18.104;2024-01-30T02:11:51;0.56;73.00
79494;SHT31;68951;53.130;18.104;2024-01-30T02:14:18;0.57;73.00
79494;SHT31;68951;53.130;18.104;2024-01-30T02:16:45;0.54;72.96
79494;SHT31;68951;53.130;18.104;2024-01-30T02:19:12;0.49;72.94
79494;SHT31;68951;53.130;18.104;2024-01-30T02:21:39;0.45;72.91
79494;SHT31;68951;53.130;18.104;2024-01-30T02:24:05;0.43;72.98
79494;SHT31;68951;53.130;18.104;2024-01-30T02:26:32;0.43;72.93
79494;SHT31;68951;53.130;18.104;2024-01-30T02:28:59;0.48;72.99
79494;SHT31;68951;53.130;18.104;2024-01-30T02:31:26;0.48;72.97
79494;SHT31;68951;53.130;18.104;2024-01-30T02:33:53;0.47;72.92
79494;SHT31;68951;53.130;18.104;2024-01-30T02:36:20;0.47;72.94
79494;SHT31;68951;53.130;18.104;2024-01-30T02:38:46;0.46;72.92
79494;SHT31;68951;53.130;18.104;2024-01-30T02:41:13;0.45;72.90
79494;SHT31;68951;53.130;18.104;2024-01-30T02:43:40;0.44;72.90
79494;SHT31;68951;53.130;18.104;2024-01-30T02:46:07;0.39;72.89
79494;SHT31;68951;53.130;18.104;2024-01-30T02:48:34;0.38;72.90
79494;SHT31;68951;53.130;18.104;2024-01-30T02:51:01;0.36;72.89
79494;SHT31;68951;53.130;18.104;2024-01-30T02:53:28;0.32;72.88
79494;SHT31;68951;53.130;18.104;2024-01-30T02:55:54;0.26;72.85
79494;SHT31;68951;53.130;18.104;2024-01-30T02:58:21;0.24;72.89
79494;SHT31;68951;53.130;18.104;2024-01-30T03:00:48;0.26;72.90
79494;SHT31;68951;53.130;18.104;2024-01-30T03:03:15;0.27;72.90
79494;SHT31;68951;53.130;18.104;2024-01-30T03:05:42;0.28;72.90
79494;SHT31;68951;53.130;18.104;2024-01-30T03:08:08;0.27;72.90
79494;SHT31;68951;53.130;18.104;2024-01-30T03:10:35;0.27;72.91
79494;SHT31;68951;53.130;18.104;2024-01-30T03:13:02;0.25;72.90
79494;SHT31;68951;53.130;18.104;2024-01-30T03:15:29;0.24;72.91
79494;SHT31;68951;53.130;18.104;2024-01-30T03:17:56;0.24;72.93
79494;SHT31;68951;53.130;18.104;2024-01-30T03:20:23;0.23;72.92
79494;SHT31;68951;53.130;18.104;2024-01-30T03:22:50;0.24;72.98
79494;SHT31;68951;53.130;18.104;2024-01-30T03:25:17;0.23;72.96
79494;SHT31;68951;53.130;18.104;2024-01-30T03:27:44;0.23;73.00
79494;SHT31;68951;53.130;18.104;2024-01-30T03:30:11;0.29;73.00
79494;SHT31;68951;53.130;18.104;2024-01-30T03:32:38;0.34;73.00
79494;SHT31;68951;53.130;18.104;2024-01-30T03:35:05;0.35;73.00
79494;SHT31;68951;53.130;18.104;2024-01-30T03:37:32;0.35;73.00
79494;SHT31;68951;53.130;18.104;2024-01-30T03:39:59;0.35;73.00
79494;SHT31;68951;53.130;18.104;2024-01-30T03:42:26;0.35;73.00
79494;SHT31;68951;53.130;18.104;2024-01-30T03:44:53;0.35;73.04
79494;SHT31;68951;53.130;18.104;2024-01-30T03:47:21;0.37;73.08
79494;SHT31;68951;53.130;18.104;2024-01-30T03:49:48;0.40;73.10
79494;SHT31;68951;53.130;18.104;2024-01-30T03:52:14;0.41;73.10
79494;SHT31;68951;53.130;18.104;2024-01-30T03:54:41;0.41;73.10
79494;SHT31;68951;53.130;18.104;2024-01-30T03:57:08;0.41;73.11
79494;SHT31;68951;53.130;18.104;2024-01-30T03:59:35;0.42;73.13
79494;SHT31;68951;53.130;18.104;2024-01-30T04:02:01;0.42;73.20
79494;SHT31;68951;53.130;18.104;2024-01-30T04:04:28;0.40;73.20
79494;SHT31;68951;53.130;18.104;2024-01-30T04:06:55;0.42;73.20
79494;SHT31;68951;53.130;18.104;2024-01-30T04:09:22;0.44;73.22
79494;SHT31;68951;53.130;18.104;2024-01-30T04:11:49;0.45;73.24
79494;SHT31;68951;53.130;18.104;2024-01-30T04:14:16;0.46;73.27
79494;SHT31;68951;53.130;18.104;2024-01-30T04:16:42;0.45;73.28
79494;SHT31;68951;53.130;18.104;2024-01-30T04:19:09;0.45;73.30
79494;SHT31;68951;53.130;18.104;2024-01-30T04:21:36;0.47;73.30
79494;SHT31;68951;53.130;18.104;2024-01-30T04:24:03;0.48;73.30
79494;SHT31;68951;53.130;18.104;2024-01-30T04:26:30;0.49;73.30
79494;SHT31;68951;53.130;18.104;2024-01-30T04:28:57;0.50;73.30
79494;SHT31;68951;53.130;18.104;2024-01-30T04:31:23;0.49;73.30
79494;SHT31;68951;53.130;18.104;2024-01-30T04:33:50;0.49;73.31
79494;SHT31;68951;53.130;18.104;2024-01-30T04:36:17;0.50;73.30
79494;SHT31;68951;53.130;18.104;2024-01-30T04:38:44;0.53;73.34
79494;SHT31;68951;53.130;18.104;2024-01-30T04:41:10;0.56;73.33
79494;SHT31;68951;53.130;18.104;2024-01-30T04:43:37;0.58;73.35
79494;SHT31;68951;53.130;18.104;2024-01-30T04:46:04;0.63;73.39
79494;SHT31;68951;53.130;18.104;2024-01-30T04:48:31;0.66;73.40
79494;SHT31;68951;53.130;18.104;2024-01-30T04:50:58;0.73;73.41
79494;SHT31;68951;53.130;18.104;2024-01-30T04:53:27;0.72;73.45
79494;SHT31;68951;53.130;18.104;2024-01-30T04:55:54;0.73;73.46
79494;SHT31;68951;53.130;18.104;2024-01-30T04:58:21;0.80;73.50
79494;SHT31;68951;53.130;18.104;2024-01-30T05:00:47;0.88;73.50
79494;SHT31;68951;53.130;18.104;2024-01-30T05:03:18;0.90;73.50
79494;SHT31;68951;53.130;18.104;2024-01-30T05:05:46;0.90;73.50
79494;SHT31;68951;53.130;18.104;2024-01-30T05:08:12;0.86;73.49
79494;SHT31;68951;53.130;18.104;2024-01-30T05:10:39;0.85;73.50
79494;SHT31;68951;53.130;18.104;2024-01-30T05:13:06;0.84;73.49
79494;SHT31;68951;53.130;18.104;2024-01-30T05:15:33;0.83;73.50
79494;SHT31;68951;53.130;18.104;2024-01-30T05:18:00;0.84;73.50
79494;SHT31;68951;53.130;18.104;2024-01-30T05:20:26;0.82;73.49
79494;SHT31;68951;53.130;18.104;2024-01-30T05:22:56;0.83;73.50
79494;SHT31;68951;53.130;18.104;2024-01-30T05:25:23;0.84;73.50
79494;SHT31;68951;53.130;18.104;2024-01-30T05:27:50;0.86;73.50
79494;SHT31;68951;53.130;18.104;2024-01-30T05:30:17;0.90;73.50
79494;SHT31;68951;53.130;18.104;2024-01-30T05:32:44;0.92;73.50
79494;SHT31;68951;53.130;18.104;2024-01-30T05:35:11;0.90;73.50
79494;SHT31;68951;53.130;18.104;2024-01-30T05:37:38;0.91;73.50
79494;SHT31;68951;53.130;18.104;2024-01-30T05:40:05;0.93;73.50
79494;SHT31;68951;53.130;18.104;2024-01-30T05:42:32;0.92;73.50
79494;SHT31;68951;53.130;18.104;2024-01-30T05:44:59;0.91;73.54
79494;SHT31;68951;53.130;18.104;2024-01-30T05:47:26;0.92;73.59
79494;SHT31;68951;53.130;18.104;2024-01-30T05:49:53;0.95;73.60
79494;SHT31;68951;53.130;18.104;2024-01-30T05:52:20;0.95;73.60
79494;SHT31;68951;53.130;18.104;2024-01-30T05:54:46;0.93;73.61
79494;SHT31;68951;53.130;18.104;2024-01-30T05:57:13;0.95;73.61
79494;SHT31;68951;53.130;18.104;2024-01-30T05:59:40;0.96;73.62
79494;SHT31;68951;53.130;18.104;2024-01-30T06:02:07;0.97;73.66
79494;SHT31;68951;53.130;18.104;2024-01-30T06:04:33;0.97;73.69
79494;SHT31;68951;53.130;18.104;2024-01-30T06:07:00;0.96;73.70
79494;SHT31;68951;53.130;18.104;2024-01-30T06:09:28;1.00;73.70
79494;SHT31;68951;53.130;18.104;2024-01-30T06:11:55;1.03;73.71
79494;SHT31;68951;53.130;18.104;2024-01-30T06:14:22;1.04;73.72
79494;SHT31;68951;53.130;18.104;2024-01-30T06:16:49;1.07;73.71
79494;SHT31;68951;53.130;18.104;2024-01-30T06:19:16;1.08;73.70
79494;SHT31;68951;53.130;18.104;2024-01-30T06:21:43;1.11;73.70
79494;SHT31;68951;53.130;18.104;2024-01-30T06:24:11;1.15;73.72
79494;SHT31;68951;53.130;18.104;2024-01-30T06:26:38;1.18;73.74
79494;SHT31;68951;53.130;18.104;2024-01-30T06:29:05;1.22;73.76
79494;SHT31;68951;53.130;18.104;2024-01-30T06:31:31;1.29;73.78
79494;SHT31;68951;53.130;18.104;2024-01-30T06:33:58;1.34;73.80
79494;SHT31;68951;53.130;18.104;2024-01-30T06:36:25;1.35;73.80
79494;SHT31;68951;53.130;18.104;2024-01-30T06:38:52;1.37;73.79
79494;SHT31;68951;53.130;18.104;2024-01-30T06:41:19;1.37;73.78
79494;SHT31;68951;53.130;18.104;2024-01-30T06:43:45;1.38;73.78
79494;SHT31;68951;53.130;18.104;2024-01-30T06:46:12;1.33;73.70
79494;SHT31;68951;53.130;18.104;2024-01-30T06:48:39;1.31;73.74
79494;SHT31;68951;53.130;18.104;2024-01-30T06:51:06;1.30;73.71
79494;SHT31;68951;53.130;18.104;2024-01-30T06:53:33;1.30;73.75
79494;SHT31;68951;53.130;18.104;2024-01-30T06:56:00;1.29;73.75
79494;SHT31;68951;53.130;18.104;2024-01-30T06:58:27;1.32;73.80
79494;SHT31;68951;53.130;18.104;2024-01-30T07:00:54;1.32;73.80
79494;SHT31;68951;53.130;18.104;2024-01-30T07:03:22;1.32;73.80
79494;SHT31;68951;53.130;18.104;2024-01-30T07:05:49;1.36;73.81
79494;SHT31;68951;53.130;18.104;2024-01-30T07:08:16;1.43;73.84
79494;SHT31;68951;53.130;18.104;2024-01-30T07:10:44;1.51;73.88
79494;SHT31;68951;53.130;18.104;2024-01-30T07:13:11;1.60;73.91
79494;SHT31;68951;53.130;18.104;2024-01-30T07:15:38;1.67;73.91
79494;SHT31;68951;53.130;18.104;2024-01-30T07:18:05;1.71;73.90
79494;SHT31;68951;53.130;18.104;2024-01-30T07:20:32;1.76;73.90
79494;SHT31;68951;53.130;18.104;2024-01-30T07:22:59;1.82;73.98
79494;SHT31;68951;53.130;18.104;2024-01-30T07:25:26;1.86;73.99
79494;SHT31;68951;53.130;18.104;2024-01-30T07:27:53;1.93;74.00
79494;SHT31;68951;53.130;18.104;2024-01-30T07:30:20;1.95;73.99
79494;SHT31;68951;53.130;18.104;2024-01-30T07:32:47;1.95;73.91
79494;SHT31;68951;53.130;18.104;2024-01-30T07:35:14;2.04;73.96
79494;SHT31;68951;53.130;18.104;2024-01-30T07:37:41;2.08;73.93
79494;SHT31;68951;53.130;18.104;2024-01-30T07:40:08;2.11;73.90
79494;SHT31;68951;53.130;18.104;2024-01-30T07:42:35;2.15;73.90
79494;SHT31;68951;53.130;18.104;2024-01-30T07:45:02;2.22;73.90
79494;SHT31;68951;53.130;18.104;2024-01-30T07:47:29;2.34;73.90
79494;SHT31;68951;53.130;18.104;2024-01-30T07:49:56;2.43;73.90
79494;SHT31;68951;53.130;18.104;2024-01-30T07:52:23;2.54;73.90
79494;SHT31;68951;53.130;18.104;2024-01-30T07:54:50;2.61;73.90
79494;SHT31;68951;53.130;18.104;2024-01-30T07:57:17;2.66;73.87
79494;SHT31;68951;53.130;18.104;2024-01-30T07:59:44;2.74;73.80
79494;SHT31;68951;53.130;18.104;2024-01-30T08:02:14;2.88;73.79
79494;SHT31;68951;53.130;18.104;2024-01-30T08:04:41;2.98;73.70
79494;SHT31;68951;53.130;18.104;2024-01-30T08:07:08;3.05;73.61
79494;SHT31;68951;53.130;18.104;2024-01-30T08:09:35;3.11;73.52
79494;SHT31;68951;53.130;18.104;2024-01-30T08:12:02;3.18;73.42
79494;SHT31;68951;53.130;18.104;2024-01-30T08:14:29;3.24;73.34
79494;SHT31;68951;53.130;18.104;2024-01-30T08:16:56;3.35;73.30
79494;SHT31;68951;53.130;18.104;2024-01-30T08:19:22;3.44;73.22
79494;SHT31;68951;53.130;18.104;2024-01-30T08:21:49;3.52;73.14
79494;SHT31;68951;53.130;18.104;2024-01-30T08:24:16;3.63;73.06
79494;SHT31;68951;53.130;18.104;2024-01-30T08:26:43;3.74;72.97
79494;SHT31;68951;53.130;18.104;2024-01-30T08:29:10;3.81;72.88
79494;SHT31;68951;53.130;18.104;2024-01-30T08:31:36;3.87;72.79
79494;SHT31;68951;53.130;18.104;2024-01-30T08:34:03;3.96;72.69
79494;SHT31;68951;53.130;18.104;2024-01-30T08:36:30;4.02;72.60
79494;SHT31;68951;53.130;18.104;2024-01-30T08:38:57;4.08;72.56
79494;SHT31;68951;53.130;18.104;2024-01-30T08:41:23;4.16;72.47
79494;SHT31;68951;53.130;18.104;2024-01-30T08:43:51;4.21;72.36
79494;SHT31;68951;53.130;18.104;2024-01-30T08:46:19;4.27;72.25
79494;SHT31;68951;53.130;18.104;2024-01-30T08:48:46;4.34;72.17
79494;SHT31;68951;53.130;18.104;2024-01-30T08:51:14;4.47;72.03
79494;SHT31;68951;53.130;18.104;2024-01-30T08:53:41;4.60;71.88
79494;SHT31;68951;53.130;18.104;2024-01-30T08:56:08;4.75;71.79
79494;SHT31;68951;53.130;18.104;2024-01-30T08:58:35;4.85;71.63
79494;SHT31;68951;53.130;18.104;2024-01-30T09:01:02;4.97;71.53
79494;SHT31;68951;53.130;18.104;2024-01-30T09:03:31;5.08;71.42
79494;SHT31;68951;53.130;18.104;2024-01-30T09:05:58;5.18;71.30
79494;SHT31;68951;53.130;18.104;2024-01-30T09:08:25;5.27;71.20
79494;SHT31;68951;53.130;18.104;2024-01-30T09:10:52;5.37;71.06
79494;SHT31;68951;53.130;18.104;2024-01-30T09:13:19;5.45;70.98
79494;SHT31;68951;53.130;18.104;2024-01-30T09:15:45;5.60;70.83
79494;SHT31;68951;53.130;18.104;2024-01-30T09:18:12;5.66;70.64
79494;SHT31;68951;53.130;18.104;2024-01-30T09:20:39;5.71;70.43
79494;SHT31;68951;53.130;18.104;2024-01-30T09:23:06;5.77;70.25
79494;SHT31;68951;53.130;18.104;2024-01-30T09:25:32;5.85;70.05
79494;SHT31;68951;53.130;18.104;2024-01-30T09:28:00;5.92;69.86
79494;SHT31;68951;53.130;18.104;2024-01-30T09:30:27;6.00;69.65
79494;SHT31;68951;53.130;18.104;2024-01-30T09:32:54;6.12;69.44
79494;SHT31;68951;53.130;18.104;2024-01-30T09:35:20;6.24;69.18
79494;SHT31;68951;53.130;18.104;2024-01-30T09:37:47;6.40;68.94
79494;SHT31;68951;53.130;18.104;2024-01-30T09:40:14;6.58;68.76
79494;SHT31;68951;53.130;18.104;2024-01-30T09:42:48;6.74;68.48
79494;SHT31;68951;53.130;18.104;2024-01-30T09:45:18;6.93;68.19
79494;SHT31;68951;53.130;18.104;2024-01-30T09:47:45;7.10;67.84
79494;SHT31;68951;53.130;18.104;2024-01-30T09:50:13;7.35;67.63
79494;SHT31;68951;53.130;18.104;2024-01-30T09:52:46;7.51;67.25
79494;SHT31;68951;53.130;18.104;2024-01-30T09:55:14;8.15;67.31
79494;SHT31;68951;53.130;18.104;2024-01-30T09:57:41;9.65;67.61
79494;SHT31;68951;53.130;18.104;2024-01-30T10:00:09;11.05;67.30
79494;SHT31;68951;53.130;18.104;2024-01-30T10:02:36;12.24;66.66
79494;SHT31;68951;53.130;18.104;2024-01-30T10:05:05;12.99;65.41
79494;SHT31;68951;53.130;18.104;2024-01-30T10:07:32;14.01;64.75
79494;SHT31;68951;53.130;18.104;2024-01-30T10:09:59;13.85;63.10
79494;SHT31;68951;53.130;18.104;2024-01-30T10:12:26;13.18;61.80
79494;SHT31;68951;53.130;18.104;2024-01-30T10:14:55;12.49;60.77
79494;SHT31;68951;53.130;18.104;2024-01-30T10:17:24;12.10;60.22
79494;SHT31;68951;53.130;18.104;2024-01-30T10:19:53;12.00;59.79
79494;SHT31;68951;53.130;18.104;2024-01-30T10:22:20;11.77;59.25
79494;SHT31;68951;53.130;18.104;2024-01-30T10:24:47;11.65;58.90
79494;SHT31;68951;53.130;18.104;2024-01-30T10:27:14;11.71;58.58
79494;SHT31;68951;53.130;18.104;2024-01-30T10:29:41;11.74;58.13
79494;SHT31;68951;53.130;18.104;2024-01-30T10:32:08;11.81;57.83
79494;SHT31;68951;53.130;18.104;2024-01-30T10:34:35;11.78;57.36
79494;SHT31;68951;53.130;18.104;2024-01-30T10:37:09;11.81;57.05
79494;SHT31;68951;53.130;18.104;2024-01-30T10:39:44;11.83;56.62
79494;SHT31;68951;53.130;18.104;2024-01-30T10:42:12;11.89;56.16
79494;SHT31;68951;53.130;18.104;2024-01-30T10:44:59;12.00;55.73
79494;SHT31;68951;53.130;18.104;2024-01-30T10:47:36;12.37;55.31
79494;SHT31;68951;53.130;18.104;2024-01-30T10:50:04;12.76;54.82
79494;SHT31;68951;53.130;18.104;2024-01-30T10:52:32;12.81;54.26
79494;SHT31;68951;53.130;18.104;2024-01-30T10:54:59;12.77;53.79
79494;SHT31;68951;53.130;18.104;2024-01-30T10:57:27;13.11;53.52
79494;SHT31;68951;53.130;18.104;2024-01-30T10:59:57;13.57;53.12
79494;SHT31;68951;53.130;18.104;2024-01-30T11:02:26;13.82;52.51
79494;SHT31;68951;53.130;18.104;2024-01-30T11:04:55;14.22;52.05
79494;SHT31;68951;53.130;18.104;2024-01-30T11:07:25;14.69;51.60
79494;SHT31;68951;53.130;18.104;2024-01-30T11:10:00;15.19;51.17
79494;SHT31;68951;53.130;18.104;2024-01-30T11:12:30;15.57;50.72
79494;SHT31;68951;53.130;18.104;2024-01-30T11:22:46;15.92;48.20
79494;SHT31;68951;53.130;18.104;2024-01-30T11:25:15;15.83;47.59
79494;SHT31;68951;53.130;18.104;2024-01-30T11:27:45;15.90;47.14
79494;SHT31;68951;53.130;18.104;2024-01-30T11:30:26;16.06;46.93
79494;SHT31;68951;53.130;18.104;2024-01-30T11:33:02;15.83;46.32
79494;SHT31;68951;53.130;18.104;2024-01-30T11:35:33;15.73;46.03
79494;SHT31;68951;53.130;18.104;2024-01-30T11:38:02;15.54;45.63
79494;SHT31;68951;53.130;18.104;2024-01-30T11:40:33;15.22;45.27
79494;SHT31;68951;53.130;18.104;2024-01-30T11:43:03;15.23;45.14
79494;SHT31;68951;53.130;18.104;2024-01-30T11:45:32;15.28;44.89
79494;SHT31;68951;53.130;18.104;2024-01-30T11:48:00;14.78;44.46
79494;SHT31;68951;53.130;18.104;2024-01-30T11:50:30;14.46;44.55
79494;SHT31;68951;53.130;18.104;2024-01-30T11:52:59;14.13;44.65
79494;SHT31;68951;53.130;18.104;2024-01-30T11:55:26;13.69;44.62
79494;SHT31;68951;53.130;18.104;2024-01-30T11:57:55;13.66;44.79
79494;SHT31;68951;53.130;18.104;2024-01-30T12:00:23;14.03;44.82
79494;SHT31;68951;53.130;18.104;2024-01-30T12:02:50;14.51;44.64
79494;SHT31;68951;53.130;18.104;2024-01-30T12:05:22;15.23;44.37
79494;SHT31;68951;53.130;18.104;2024-01-30T12:07:52;15.98;44.06
79494;SHT31;68951;53.130;18.104;2024-01-30T12:10:19;16.82;43.63
79494;SHT31;68951;53.130;18.104;2024-01-30T12:12:48;17.50;42.92
79494;SHT31;68951;53.130;18.104;2024-01-30T12:15:17;17.78;42.24
79494;SHT31;68951;53.130;18.104;2024-01-30T12:17:48;17.80;41.51
79494;SHT31;68951;53.130;18.104;2024-01-30T12:20:17;17.98;41.16
79494;SHT31;68951;53.130;18.104;2024-01-30T12:22:46;18.23;40.80
79494;SHT31;68951;53.130;18.104;2024-01-30T12:25:15;18.75;40.47
79494;SHT31;68951;53.130;18.104;2024-01-30T12:27:45;19.03;39.86
79494;SHT31;68951;53.130;18.104;2024-01-30T12:30:17;19.20;39.34
79494;SHT31;68951;53.130;18.104;2024-01-30T12:32:47;19.61;38.98
79494;SHT31;68951;53.130;18.104;2024-01-30T12:35:17;19.95;38.50
79494;SHT31;68951;53.130;18.104;2024-01-30T12:37:46;19.71;37.83
79494;SHT31;68951;53.130;18.104;2024-01-30T12:40:15;19.58;37.63
79494;SHT31;68951;53.130;18.104;2024-01-30T12:42:43;19.92;37.56
79494;SHT31;68951;53.130;18.104;2024-01-30T12:45:15;20.07;37.23
79494;SHT31;68951;53.130;18.104;2024-01-30T12:47:42;19.84;36.98
79494;SHT31;68951;53.130;18.104;2024-01-30T12:50:09;19.83;37.03
79494;SHT31;68951;53.130;18.104;2024-01-30T12:52:36;19.80;36.91
79494;SHT31;68951;53.130;18.104;2024-01-30T12:55:03;19.43;36.75
79494;SHT31;68951;53.130;18.104;2024-01-30T12:57:31;18.62;36.51
79494;SHT31;68951;53.130;18.104;2024-01-30T12:59:57;17.85;36.57
79494;SHT31;68951;53.130;18.104;2024-01-30T13:02:25;17.22;36.78
79494;SHT31;68951;53.130;18.104;2024-01-30T13:04:54;16.79;37.10
79494;SHT31;68951;53.130;18.104;2024-01-30T13:07:21;16.68;37.38
79494;SHT31;68951;53.130;18.104;2024-01-30T13:09:48;16.78;37.63
79494;SHT31;68951;53.130;18.104;2024-01-30T13:12:14;16.61;37.79
79494;SHT31;68951;53.130;18.104;2024-01-30T13:14:41;16.17;37.91
79494;SHT31;68951;53.130;18.104;2024-01-30T13:17:08;15.62;38.16
79494;SHT31;68951;53.130;18.104;2024-01-30T13:19:35;15.25;38.45
79494;SHT31;68951;53.130;18.104;2024-01-30T13:22:02;14.90;38.77
79494;SHT31;68951;53.130;18.104;2024-01-30T13:24:28;14.48;39.08
79494;SHT31;68951;53.130;18.104;2024-01-30T13:26:55;14.07;39.43
79494;SHT31;68951;53.130;18.104;2024-01-30T13:29:22;13.84;39.84
79494;SHT31;68951;53.130;18.104;2024-01-30T13:31:49;13.55;40.16
79494;SHT31;68951;53.130;18.104;2024-01-30T13:34:16;13.37;40.50
79494;SHT31;68951;53.130;18.104;2024-01-30T13:36:42;13.10;40.83
79494;SHT31;68951;53.130;18.104;2024-01-30T13:39:09;13.01;41.18
79494;SHT31;68951;53.130;18.104;2024-01-30T13:41:37;12.89;41.44
79494;SHT31;68951;53.130;18.104;2024-01-30T13:44:04;12.72;41.75
79494;SHT31;68951;53.130;18.104;2024-01-30T13:46:31;12.63;42.01
79494;SHT31;68951;53.130;18.104;2024-01-30T13:48:59;12.56;42.28
79494;SHT31;68951;53.130;18.104;2024-01-30T13:51:26;12.70;42.50
79494;SHT31;68951;53.130;18.104;2024-01-30T13:53:52;12.91;42.64
79494;SHT31;68951;53.130;18.104;2024-01-30T13:56:20;13.26;42.75
79494;SHT31;68951;53.130;18.104;2024-01-30T13:58:48;13.63;42.80
79494;SHT31;68951;53.130;18.104;2024-01-30T14:01:16;13.64;42.71
79494;SHT31;68951;53.130;18.104;2024-01-30T14:03:43;13.67;42.83
79494;SHT31;68951;53.130;18.104;2024-01-30T14:06:10;13.90;42.89
79494;SHT31;68951;53.130;18.104;2024-01-30T14:08:38;13.93;42.83
79494;SHT31;68951;53.130;18.104;2024-01-30T14:11:05;13.80;42.84
79494;SHT31;68951;53.130;18.104;2024-01-30T14:13:33;13.51;42.90
79494;SHT31;68951;53.130;18.104;2024-01-30T14:16:00;13.16;43.09
79494;SHT31;68951;53.130;18.104;2024-01-30T14:18:27;12.98;43.33
79494;SHT31;68951;53.130;18.104;2024-01-30T14:20:53;12.81;43.55
79494;SHT31;68951;53.130;18.104;2024-01-30T14:23:20;12.55;43.76
79494;SHT31;68951;53.130;18.104;2024-01-30T14:25:47;12.35;44.00
79494;SHT31;68951;53.130;18.104;2024-01-30T14:28:15;12.14;44.29
79494;SHT31;68951;53.130;18.104;2024-01-30T14:30:42;12.06;44.58
79494;SHT31;68951;53.130;18.104;2024-01-30T14:33:09;11.95;44.91
79494;SHT31;68951;53.130;18.104;2024-01-30T14:35:35;11.94;45.21
79494;SHT31;68951;53.130;18.104;2024-01-30T14:38:02;12.02;45.44
79494;SHT31;68951;53.130;18.104;2024-01-30T14:40:31;11.86;45.67
79494;SHT31;68951;53.130;18.104;2024-01-30T14:42:58;11.62;45.94
79494;SHT31;68951;53.130;18.104;2024-01-30T14:45:25;11.56;46.20
79494;SHT31;68951;53.130;18.104;2024-01-30T14:47:52;11.59;46.46
79494;SHT31;68951;53.130;18.104;2024-01-30T14:50:19;11.56;46.66
79494;SHT31;68951;53.130;18.104;2024-01-30T14:52:46;11.43;46.88
79494;SHT31;68951;53.130;18.104;2024-01-30T14:55:13;11.25;47.12
79494;SHT31;68951;53.130;18.104;2024-01-30T14:57:40;11.07;47.42
79494;SHT31;68951;53.130;18.104;2024-01-30T15:00:09;10.87;47.66
79494;SHT31;68951;53.130;18.104;2024-01-30T15:02:36;10.63;47.95
79494;SHT31;68951;53.130;18.104;2024-01-30T15:05:03;10.39;48.27
79494;SHT31;68951;53.130;18.104;2024-01-30T15:07:30;10.18;48.56
79494;SHT31;68951;53.130;18.104;2024-01-30T15:09:59;10.04;48.83
79494;SHT31;68951;53.130;18.104;2024-01-30T15:12:26;9.86;49.12
79494;SHT31;68951;53.130;18.104;2024-01-30T15:14:53;9.65;49.41
79494;SHT31;68951;53.130;18.104;2024-01-30T15:17:20;9.42;49.72
79494;SHT31;68951;53.130;18.104;2024-01-30T15:19:49;9.23;50.04
79494;SHT31;68951;53.130;18.104;2024-01-30T15:22:17;9.02;50.34
79494;SHT31;68951;53.130;18.104;2024-01-30T15:24:44;8.84;50.67
79494;SHT31;68951;53.130;18.104;2024-01-30T15:27:10;8.69;50.96
79494;SHT31;68951;53.130;18.104;2024-01-30T15:29:37;8.52;51.30
79494;SHT31;68951;53.130;18.104;2024-01-30T15:32:04;8.33;51.61
79494;SHT31;68951;53.130;18.104;2024-01-30T15:34:32;8.13;51.96